Time;durP1;ratioP1;P1;durP2;ratioP2;P2;SDS_P1;SDS_P2;PMS_P1;PMS_P2;Temp;Humidity;BMP_temperature;BMP_pressure;BME280_temperature;BME280_humidity;BME280_pressure;Samples;Min_cycle;Max_cycle;Signal;HPM_P1;HPM_P2
2023/01/25 00:01:28;;;;;;;17.13;8.57;;;;;;;;;;5059305;28;20036;-87
2023/01/25 00:03:54;;;;;;;16.85;8.95;;;;;;;;;;5049422;28;20041;-87
2023/01/25 00:06:19;;;;;;;19.95;9.27;;;;;;;;;;5039689;28;20052;-88
2023/01/25 00:08:54;;;;;;;20.85;9.98;;;;;;;;;;5048823;28;20043;-87
2023/01/25 00:11:20;;;;;;;19.55;8.73;;;;;;;;;;5030611;28;20554;-88
2023/01/25 00:14:06;;;;;;;18.20;9.10;;;;;;;;;;5035719;28;20048;-86
2023/01/25 00:16:32;;;;;;;17.70;8.90;;;;;;;;;;4999723;28;20049;-88
2023/01/25 00:18:57;;;;;;;19.33;8.70;;;;;;;;;;4968168;28;20636;-85
2023/01/25 00:21:26;;;;;;;17.90;8.77;;;;;;;;;;4966752;28;20038;-87
2023/01/25 00:23:54;;;;;;;19.95;9.15;;;;;;;;;;4983593;28;20584;-86
2023/01/25 00:26:20;;;;;;;18.65;9.20;;;;;;;;;;4958614;28;20620;-87
2023/01/25 00:28:49;;;;;;;18.60;8.82;;;;;;;;;;4979360;28;20125;-87
2023/01/25 00:31:38;;;;;;;20.65;9.40;;;;;;;;;;4967724;28;20981;-87
2023/01/25 00:34:28;;;;;;;19.88;9.82;;;;;;;;;;5001854;28;20045;-86
2023/01/25 00:37:00;;;;;;;16.30;8.65;;;;;;;;;;4968055;28;20088;-86
2023/01/25 00:39:27;;;;;;;21.30;9.73;;;;;;;;;;4945466;28;20525;-85
2023/01/25 00:41:52;;;;;;;18.33;9.43;;;;;;;;;;4974126;28;20095;-86
2023/01/25 00:44:18;;;;;;;18.38;9.13;;;;;;;;;;4970112;28;20056;-87
2023/01/25 00:46:44;;;;;;;16.55;9.02;;;;;;;;;;4961361;28;20088;-87
2023/01/25 00:49:24;;;;;;;17.10;8.77;;;;;;;;;;4958525;28;20194;-87
2023/01/25 00:51:51;;;;;;;19.70;8.98;;;;;;;;;;4984650;28;20161;-87
2023/01/25 00:54:17;;;;;;;20.23;9.70;;;;;;;;;;5023827;28;20047;-88
2023/01/25 00:56:42;;;;;;;18.63;9.70;;;;;;;;;;5033217;28;20033;-86
2023/01/25 00:59:09;;;;;;;17.33;8.80;;;;;;;;;;5050300;28;20487;-87
2023/01/25 01:01:34;;;;;;;17.85;9.02;;;;;;;;;;5031473;28;20036;-87
2023/01/25 01:04:00;;;;;;;17.77;8.70;;;;;;;;;;5041467;28;20035;-87
2023/01/25 01:06:25;;;;;;;19.67;9.65;;;;;;;;;;5042662;28;20411;-88
2023/01/25 01:08:51;;;;;;;19.13;9.05;;;;;;;;;;5044437;28;20044;-87
2023/01/25 01:11:16;;;;;;;18.08;8.90;;;;;;;;;;5032592;28;20064;-87
2023/01/25 01:13:41;;;;;;;21.10;9.57;;;;;;;;;;5044076;28;20075;-87
2023/01/25 01:16:10;;;;;;;21.10;9.88;;;;;;;;;;5034659;28;20038;-87
2023/01/25 01:18:41;;;;;;;19.27;8.82;;;;;;;;;;5047884;28;20032;-88
2023/01/25 01:21:07;;;;;;;21.10;9.98;;;;;;;;;;5036374;28;20029;-87
2023/01/25 01:23:33;;;;;;;21.92;11.27;;;;;;;;;;5021241;28;21083;-87
2023/01/25 01:25:59;;;;;;;17.63;8.90;;;;;;;;;;5022277;28;20043;-87
2023/01/25 01:28:26;;;;;;;20.88;9.02;;;;;;;;;;5025553;28;20037;-87
2023/01/25 01:30:59;;;;;;;22.52;9.50;;;;;;;;;;5057947;28;20381;-88
2023/01/25 01:33:24;;;;;;;19.25;8.75;;;;;;;;;;5042690;28;20045;-88
2023/01/25 01:35:49;;;;;;;18.90;9.23;;;;;;;;;;5023509;28;20336;-88
2023/01/25 01:38:15;;;;;;;20.98;10.05;;;;;;;;;;4995360;28;20103;-87
2023/01/25 01:40:48;;;;;;;16.98;8.98;;;;;;;;;;5026482;28;20063;-87
2023/01/25 01:43:23;;;;;;;21.17;9.38;;;;;;;;;;5040005;28;20573;-89
2023/01/25 01:45:52;;;;;;;19.23;9.38;;;;;;;;;;5034779;28;20049;-86
2023/01/25 01:48:40;;;;;;;23.00;10.18;;;;;;;;;;5032516;28;20126;-87
2023/01/25 01:51:16;;;;;;;20.42;9.45;;;;;;;;;;5029479;28;20079;-87
2023/01/25 01:53:45;;;;;;;18.00;9.27;;;;;;;;;;5033139;28;20035;-87
2023/01/25 01:56:15;;;;;;;19.70;9.38;;;;;;;;;;5027102;28;20127;-87
2023/01/25 01:58:42;;;;;;;19.85;9.20;;;;;;;;;;5046750;28;20469;-87
2023/01/25 02:01:07;;;;;;;19.83;10.32;;;;;;;;;;5029663;28;20032;-86
2023/01/25 02:03:33;;;;;;;21.85;9.60;;;;;;;;;;5047385;28;20098;-85
2023/01/25 02:06:35;;;;;;;20.52;9.43;;;;;;;;;;5040166;28;20062;-87
2023/01/25 02:09:01;;;;;;;19.33;9.32;;;;;;;;;;5020501;28;20254;-87
2023/01/25 02:11:28;;;;;;;17.58;9.75;;;;;;;;;;5036574;28;20521;-87
2023/01/25 02:13:54;;;;;;;19.08;9.20;;;;;;;;;;5029695;28;20086;-87
2023/01/25 02:16:23;;;;;;;17.30;9.15;;;;;;;;;;5019571;28;20036;-88
2023/01/25 02:18:49;;;;;;;19.80;9.68;;;;;;;;;;5029851;28;20818;-88
2023/01/25 02:21:14;;;;;;;19.55;9.38;;;;;;;;;;5038317;28;20033;-88
2023/01/25 02:23:48;;;;;;;19.33;9.38;;;;;;;;;;5026936;28;20112;-86
2023/01/25 02:26:16;;;;;;;23.52;10.15;;;;;;;;;;5028548;28;20453;-87
2023/01/25 02:28:48;;;;;;;21.70;10.07;;;;;;;;;;5036042;28;20037;-88
2023/01/25 02:31:14;;;;;;;19.40;8.88;;;;;;;;;;5035528;28;20033;-88
2023/01/25 02:33:39;;;;;;;19.23;9.27;;;;;;;;;;5030767;28;20037;-88
2023/01/25 02:36:07;;;;;;;23.00;10.20;;;;;;;;;;5045348;28;20036;-88
2023/01/25 02:38:39;;;;;;;23.00;9.80;;;;;;;;;;5038395;28;20039;-87
2023/01/25 02:41:10;;;;;;;21.58;9.77;;;;;;;;;;5021726;28;20523;-88
2023/01/25 02:43:36;;;;;;;21.05;9.48;;;;;;;;;;5024954;28;20617;-88
2023/01/25 02:46:11;;;;;;;17.20;8.68;;;;;;;;;;5019958;28;20056;-87
2023/01/25 02:48:36;;;;;;;20.98;9.65;;;;;;;;;;5051452;28;20041;-87
2023/01/25 02:51:06;;;;;;;21.13;9.82;;;;;;;;;;5019696;28;20045;-87
2023/01/25 02:53:31;;;;;;;18.77;9.32;;;;;;;;;;5029219;28;20078;-87
2023/01/25 02:55:57;;;;;;;20.33;10.45;;;;;;;;;;5025388;28;20503;-88
2023/01/25 02:58:22;;;;;;;18.17;8.60;;;;;;;;;;5018239;28;20064;-87
2023/01/25 03:00:47;;;;;;;20.13;10.25;;;;;;;;;;5018112;28;20116;-87
2023/01/25 03:03:13;;;;;;;19.00;9.07;;;;;;;;;;5021809;28;20048;-86
2023/01/25 03:05:38;;;;;;;20.95;9.35;;;;;;;;;;5020398;28;20741;-87
2023/01/25 03:08:04;;;;;;;19.38;8.80;;;;;;;;;;5029027;28;20492;-87
2023/01/25 03:10:29;;;;;;;15.32;7.43;;;;;;;;;;5027038;28;20489;-87
2023/01/25 03:12:55;;;;;;;18.92;8.88;;;;;;;;;;5046359;28;20516;-87
2023/01/25 03:15:20;;;;;;;18.38;9.02;;;;;;;;;;5027474;28;20172;-87
2023/01/25 03:17:45;;;;;;;18.83;9.18;;;;;;;;;;5042208;28;20137;-88
2023/01/25 03:20:11;;;;;;;20.30;9.55;;;;;;;;;;5021267;28;20032;-88
2023/01/25 03:22:36;;;;;;;17.42;9.48;;;;;;;;;;5044788;28;20558;-88
2023/01/25 03:25:02;;;;;;;22.05;10.32;;;;;;;;;;5024789;28;20523;-88
2023/01/25 03:27:30;;;;;;;22.02;10.25;;;;;;;;;;5036726;28;20040;-87
2023/01/25 03:29:56;;;;;;;21.45;9.98;;;;;;;;;;5044776;28;20032;-87
2023/01/25 03:32:22;;;;;;;21.45;9.93;;;;;;;;;;5019681;28;20434;-88
2023/01/25 03:34:47;;;;;;;20.73;9.75;;;;;;;;;;5033505;28;20068;-88
2023/01/25 03:37:13;;;;;;;13.88;6.88;;;;;;;;;;5027540;28;20039;-86
2023/01/25 03:39:39;;;;;;;14.48;7.25;;;;;;;;;;5035407;28;20040;-87
2023/01/25 03:42:04;;;;;;;13.35;6.20;;;;;;;;;;5032526;28;20048;-87
2023/01/25 03:44:30;;;;;;;12.00;5.88;;;;;;;;;;5040290;28;20434;-88
2023/01/25 03:46:56;;;;;;;14.43;6.13;;;;;;;;;;5039619;28;20369;-86
2023/01/25 03:49:21;;;;;;;13.18;6.20;;;;;;;;;;5044236;28;20512;-87
2023/01/25 03:51:47;;;;;;;14.10;6.68;;;;;;;;;;5025084;28;20383;-86
2023/01/25 03:54:12;;;;;;;14.55;7.38;;;;;;;;;;5035519;28;20051;-85
2023/01/25 03:56:37;;;;;;;15.05;6.88;;;;;;;;;;5027601;28;20028;-86
2023/01/25 03:59:03;;;;;;;14.40;6.85;;;;;;;;;;5019521;28;20033;-86
2023/01/25 04:01:28;;;;;;;16.02;7.47;;;;;;;;;;5026784;28;20110;-86
2023/01/25 04:03:54;;;;;;;18.75;8.43;;;;;;;;;;5035340;28;20110;-86
2023/01/25 04:06:19;;;;;;;14.55;6.82;;;;;;;;;;5034217;28;20037;-86
2023/01/25 04:08:45;;;;;;;13.02;7.22;;;;;;;;;;5035540;28;20040;-87
2023/01/25 04:11:10;;;;;;;13.70;6.95;;;;;;;;;;5042815;28;20052;-85
2023/01/25 04:13:36;;;;;;;13.10;6.57;;;;;;;;;;5025966;28;20041;-87
2023/01/25 04:16:07;;;;;;;14.45;7.03;;;;;;;;;;5021148;28;20912;-86
2023/01/25 04:18:32;;;;;;;9.85;4.90;;;;;;;;;;5018308;28;20412;-88
2023/01/25 04:20:58;;;;;;;12.40;5.63;;;;;;;;;;5026474;28;20033;-87
2023/01/25 04:23:24;;;;;;;11.82;6.10;;;;;;;;;;5044121;28;20037;-86
2023/01/25 04:26:03;;;;;;;11.82;5.85;;;;;;;;;;5025006;28;20044;-86
2023/01/25 04:28:29;;;;;;;13.05;6.00;;;;;;;;;;5051111;28;20047;-86
2023/01/25 04:30:55;;;;;;;12.02;6.10;;;;;;;;;;5033412;28;20033;-88
2023/01/25 04:33:21;;;;;;;11.82;4.97;;;;;;;;;;5028432;28;20045;-88
2023/01/25 04:35:49;;;;;;;9.77;5.45;;;;;;;;;;5024836;28;20041;-87
2023/01/25 04:38:17;;;;;;;13.55;5.20;;;;;;;;;;5026845;28;20488;-87
2023/01/25 04:40:43;;;;;;;11.57;5.85;;;;;;;;;;5021748;28;20037;-86
2023/01/25 04:43:10;;;;;;;12.30;6.45;;;;;;;;;;5024521;28;20123;-87
2023/01/25 04:45:35;;;;;;;13.23;5.37;;;;;;;;;;5031724;28;20393;-87
2023/01/25 04:48:03;;;;;;;10.13;5.13;;;;;;;;;;5045447;28;20283;-87
2023/01/25 04:50:29;;;;;;;11.57;5.68;;;;;;;;;;5035441;28;20051;-87
2023/01/25 04:52:54;;;;;;;11.63;5.97;;;;;;;;;;5036234;28;20033;-87
2023/01/25 04:55:20;;;;;;;11.15;5.60;;;;;;;;;;5035893;28;20577;-88
2023/01/25 04:57:49;;;;;;;13.05;5.53;;;;;;;;;;5048661;28;20041;-86
2023/01/25 05:00:15;;;;;;;12.80;6.15;;;;;;;;;;5051013;28;20428;-86
2023/01/25 05:02:41;;;;;;;11.70;6.07;;;;;;;;;;5054114;28;20033;-86
2023/01/25 05:05:07;;;;;;;12.60;6.10;;;;;;;;;;5047259;28;20156;-87
2023/01/25 05:07:33;;;;;;;13.45;6.15;;;;;;;;;;5030101;28;21214;-87
2023/01/25 05:09:58;;;;;;;13.60;6.85;;;;;;;;;;5038338;28;20068;-87
2023/01/25 05:12:23;;;;;;;15.18;6.80;;;;;;;;;;5046467;28;20040;-87
2023/01/25 05:14:49;;;;;;;18.02;8.48;;;;;;;;;;5019975;28;20029;-87
2023/01/25 05:17:15;;;;;;;16.48;7.50;;;;;;;;;;5029350;28;20381;-87
2023/01/25 05:19:41;;;;;;;11.98;5.68;;;;;;;;;;5031230;28;20143;-84
2023/01/25 05:22:10;;;;;;;13.85;6.25;;;;;;;;;;5036543;28;20111;-87
2023/01/25 05:24:36;;;;;;;12.60;5.82;;;;;;;;;;5037450;28;20041;-87
2023/01/25 05:27:06;;;;;;;12.30;5.40;;;;;;;;;;5046582;28;20043;-87
2023/01/25 05:29:37;;;;;;;13.40;5.68;;;;;;;;;;5029455;28;21046;-87
2023/01/25 05:32:29;;;;;;;13.15;6.45;;;;;;;;;;5009433;28;20168;-88
2023/01/25 05:34:54;;;;;;;12.00;5.97;;;;;;;;;;4973759;28;20042;-85
2023/01/25 05:37:20;;;;;;;13.13;6.70;;;;;;;;;;4973070;28;20052;-86
2023/01/25 05:39:48;;;;;;;12.73;6.15;;;;;;;;;;4973430;28;20057;-86
2023/01/25 05:42:16;;;;;;;13.40;6.63;;;;;;;;;;4952400;28;20094;-89
2023/01/25 05:44:44;;;;;;;13.45;6.68;;;;;;;;;;4973954;28;20038;-88
2023/01/25 05:47:15;;;;;;;15.48;6.80;;;;;;;;;;4965208;28;20049;-87
2023/01/25 05:49:40;;;;;;;15.98;7.15;;;;;;;;;;4954182;28;20514;-88
2023/01/25 05:52:15;;;;;;;12.60;6.32;;;;;;;;;;4964426;28;20125;-89
2023/01/25 05:54:40;;;;;;;16.60;7.10;;;;;;;;;;4975963;28;20064;-88
2023/01/25 05:57:06;;;;;;;16.13;7.35;;;;;;;;;;4955153;28;20058;-91
2023/01/25 05:59:31;;;;;;;14.63;7.53;;;;;;;;;;4973943;28;20045;-86
2023/01/25 06:01:57;;;;;;;14.30;7.43;;;;;;;;;;4988368;28;20038;-87
2023/01/25 06:04:22;;;;;;;15.95;7.38;;;;;;;;;;4956372;28;20062;-88
2023/01/25 06:06:48;;;;;;;17.13;8.00;;;;;;;;;;4988351;28;20395;-87
2023/01/25 06:09:13;;;;;;;15.52;7.80;;;;;;;;;;4973785;28;20097;-85
2023/01/25 06:11:42;;;;;;;15.35;7.18;;;;;;;;;;4980409;28;20129;-89
2023/01/25 06:14:08;;;;;;;14.52;7.38;;;;;;;;;;5034548;28;20111;-90
2023/01/25 06:16:33;;;;;;;16.52;8.10;;;;;;;;;;5035040;28;20123;-89
2023/01/25 06:18:58;;;;;;;13.98;6.97;;;;;;;;;;5046243;28;20040;-89
2023/01/25 06:21:24;;;;;;;15.15;7.32;;;;;;;;;;5028498;28;20040;-89
2023/01/25 06:23:49;;;;;;;20.52;8.75;;;;;;;;;;5037861;28;20104;-89
2023/01/25 06:26:15;;;;;;;17.23;8.40;;;;;;;;;;5045678;28;20102;-90
2023/01/25 06:28:43;;;;;;;17.17;7.32;;;;;;;;;;5028690;28;20400;-87
2023/01/25 06:31:13;;;;;;;17.33;7.88;;;;;;;;;;5046045;28;20036;-88
2023/01/25 06:33:40;;;;;;;17.67;8.15;;;;;;;;;;5034778;28;20440;-92
2023/01/25 06:36:11;;;;;;;17.23;9.02;;;;;;;;;;5040712;28;20492;-87
2023/01/25 06:38:37;;;;;;;16.33;7.40;;;;;;;;;;5036844;28;20033;-86
2023/01/25 06:41:04;;;;;;;16.98;8.73;;;;;;;;;;5032927;28;20147;-87
2023/01/25 06:43:30;;;;;;;;;;;;;;;;;;5028714;28;20453;-88
2023/01/25 06:46:14;;;;;;;17.27;7.47;;;;;;;;;;5015326;28;19952;-86
2023/01/25 06:48:41;;;;;;;15.45;6.82;;;;;;;;;;5037283;28;20127;-87
2023/01/25 06:51:08;;;;;;;;;;;;;;;;;;5025681;28;20067;-84
2023/01/25 06:53:36;;;;;;;15.68;6.40;;;;;;;;;;5025534;28;19978;-81
2023/01/25 06:56:03;;;;;;;12.55;6.35;;;;;;;;;;5038070;28;20119;-81
2023/01/25 06:58:30;;;;;;;15.38;7.25;;;;;;;;;;5045065;28;20737;-82
2023/01/25 07:01:20;;;;;;;13.32;7.18;;;;;;;;;;5022125;28;20112;-83
2023/01/25 07:03:49;;;;;;;13.77;7.32;;;;;;;;;;5032651;28;20463;-81
2023/01/25 07:06:15;;;;;;;14.82;7.57;;;;;;;;;;5042850;28;20392;-82
2023/01/25 07:08:40;;;;;;;17.63;8.05;;;;;;;;;;5044980;28;20033;-81
2023/01/25 07:11:10;;;;;;;14.75;7.60;;;;;;;;;;5031266;28;20530;-81
2023/01/25 07:13:36;;;;;;;17.80;8.27;;;;;;;;;;5045014;28;20036;-81
2023/01/25 07:16:05;;;;;;;19.10;8.30;;;;;;;;;;5026946;28;20388;-82
2023/01/25 07:18:31;;;;;;;13.88;7.38;;;;;;;;;;5050997;28;20087;-83
2023/01/25 07:21:11;;;;;;;15.52;7.82;;;;;;;;;;5032700;28;20503;-81
2023/01/25 07:23:37;;;;;;;17.85;7.95;;;;;;;;;;5040240;28;20035;-82
2023/01/25 07:26:04;;;;;;;15.73;7.70;;;;;;;;;;5026373;28;20053;-81
2023/01/25 07:28:33;;;;;;;14.90;7.53;;;;;;;;;;5027397;28;20119;-82
2023/01/25 07:31:07;;;;;;;17.05;7.88;;;;;;;;;;5050788;28;20059;-86
2023/01/25 07:33:33;;;;;;;19.52;8.27;;;;;;;;;;5034039;28;20036;-87
2023/01/25 07:36:03;;;;;;;15.35;7.45;;;;;;;;;;5015216;28;20435;-88
2023/01/25 07:38:28;;;;;;;17.35;7.72;;;;;;;;;;5042024;28;20128;-85
2023/01/25 07:40:54;;;;;;;16.30;7.80;;;;;;;;;;5018651;28;20105;-87
2023/01/25 07:43:19;;;;;;;15.13;7.93;;;;;;;;;;5036216;28;20043;-87
2023/01/25 07:46:05;;;;;;;14.77;7.55;;;;;;;;;;5027180;28;20573;-86
2023/01/25 07:48:32;;;;;;;14.50;7.00;;;;;;;;;;4984485;28;20486;-88
2023/01/25 07:51:10;;;;;;;15.25;7.55;;;;;;;;;;4968227;28;20041;-87
2023/01/25 07:53:40;;;;;;;17.23;7.43;;;;;;;;;;4981195;28;20030;-87
2023/01/25 07:56:06;;;;;;;16.77;8.15;;;;;;;;;;4978622;28;20042;-89
2023/01/25 07:58:32;;;;;;;19.60;8.10;;;;;;;;;;4972178;28;20053;-85
2023/01/25 08:01:14;;;;;;;17.17;8.18;;;;;;;;;;4971608;28;20494;-88
2023/01/25 08:03:40;;;;;;;16.08;8.23;;;;;;;;;;4978810;28;20176;-88
2023/01/25 08:06:06;;;;;;;18.45;8.45;;;;;;;;;;4960947;28;20093;-91
2023/01/25 08:08:36;;;;;;;21.42;8.52;;;;;;;;;;4989522;28;20041;-88
2023/01/25 08:11:16;;;;;;;15.00;7.50;;;;;;;;;;4967573;28;20038;-88
2023/01/25 08:13:50;;;;;;;17.08;7.78;;;;;;;;;;4985605;28;20433;-88
2023/01/25 08:16:20;;;;;;;17.90;8.10;;;;;;;;;;4968949;28;20500;-88
2023/01/25 08:18:50;;;;;;;15.32;8.00;;;;;;;;;;4988422;28;20040;-89
2023/01/25 08:21:15;;;;;;;17.83;8.35;;;;;;;;;;4971569;28;20711;-88
2023/01/25 08:23:41;;;;;;;16.23;7.95;;;;;;;;;;4985358;28;20037;-89
2023/01/25 08:26:08;;;;;;;15.85;7.50;;;;;;;;;;5019696;28;20119;-89
2023/01/25 08:28:34;;;;;;;17.02;7.85;;;;;;;;;;5017932;28;20040;-90
2023/01/25 08:31:16;;;;;;;16.50;7.32;;;;;;;;;;5024088;28;21089;-88
2023/01/25 08:33:43;;;;;;;20.15;8.20;;;;;;;;;;5033502;28;20193;-90
2023/01/25 08:36:09;;;;;;;15.68;6.97;;;;;;;;;;5027545;28;20033;-88
2023/01/25 08:38:35;;;;;;;17.60;7.57;;;;;;;;;;5049233;28;20044;-88
2023/01/25 08:41:09;;;;;;;17.52;7.93;;;;;;;;;;5025276;28;20549;-86
2023/01/25 08:43:38;;;;;;;14.90;7.00;;;;;;;;;;5026205;28;20493;-91
2023/01/25 08:46:04;;;;;;;15.13;7.38;;;;;;;;;;5042278;28;20044;-89
2023/01/25 08:48:32;;;;;;;17.45;8.27;;;;;;;;;;5033946;28;20037;-89
2023/01/25 08:50:58;;;;;;;16.38;8.40;;;;;;;;;;5024909;28;20116;-88
2023/01/25 08:53:23;;;;;;;20.02;8.50;;;;;;;;;;5019514;28;20116;-87
2023/01/25 08:55:49;;;;;;;18.75;8.90;;;;;;;;;;5002283;28;20040;-88
2023/01/25 08:58:18;;;;;;;19.38;8.05;;;;;;;;;;5026302;28;20531;-86
2023/01/25 09:00:44;;;;;;;17.13;7.68;;;;;;;;;;5020176;28;20468;-87
2023/01/25 09:03:10;;;;;;;18.73;8.30;;;;;;;;;;5025837;28;20097;-86
2023/01/25 09:05:37;;;;;;;15.75;7.40;;;;;;;;;;5025876;28;20347;-88
2023/01/25 09:08:04;;;;;;;15.18;7.35;;;;;;;;;;5042353;28;20468;-88
2023/01/25 09:10:30;;;;;;;16.98;7.55;;;;;;;;;;5025798;28;20056;-87
2023/01/25 09:12:55;;;;;;;15.45;7.57;;;;;;;;;;5018130;28;20120;-86
2023/01/25 09:15:23;;;;;;;15.82;7.28;;;;;;;;;;5041652;28;20040;-87
2023/01/25 09:17:53;;;;;;;16.75;8.07;;;;;;;;;;5044110;28;20087;-88
2023/01/25 09:20:19;;;;;;;16.23;6.95;;;;;;;;;;5024910;28;20124;-89
2023/01/25 09:22:44;;;;;;;17.02;8.02;;;;;;;;;;5031073;28;20568;-89
2023/01/25 09:25:10;;;;;;;18.17;7.60;;;;;;;;;;5019231;28;20036;-88
2023/01/25 09:27:35;;;;;;;16.25;8.52;;;;;;;;;;5018496;28;20033;-86
2023/01/25 09:30:01;;;;;;;21.50;8.57;;;;;;;;;;5015248;28;20029;-86
2023/01/25 09:32:26;;;;;;;19.58;9.10;;;;;;;;;;5025735;28;20125;-87
2023/01/25 09:34:52;;;;;;;21.30;8.48;;;;;;;;;;5029319;28;20048;-88
2023/01/25 09:37:17;;;;;;;21.00;9.13;;;;;;;;;;5029410;28;20036;-87
2023/01/25 09:39:43;;;;;;;19.08;8.43;;;;;;;;;;5024174;28;20037;-84
2023/01/25 09:42:39;;;;;;;19.25;9.07;;;;;;;;;;5019129;28;20098;-85
2023/01/25 09:45:27;;;;;;;21.70;9.40;;;;;;;;;;5052211;28;20037;-88
2023/01/25 09:48:03;;;;;;;19.40;8.65;;;;;;;;;;5027540;28;20044;-86
2023/01/25 09:50:32;;;;;;;18.25;8.75;;;;;;;;;;5053654;28;20033;-86
2023/01/25 09:53:31;;;;;;;19.00;8.93;;;;;;;;;;5045220;28;20098;-88
2023/01/25 09:56:00;;;;;;;18.50;7.85;;;;;;;;;;5035180;28;20033;-86
2023/01/25 09:58:32;;;;;;;19.73;8.85;;;;;;;;;;5030716;28;20514;-86
2023/01/25 10:01:04;;;;;;;17.23;8.00;;;;;;;;;;5021965;28;20029;-86
2023/01/25 10:03:40;;;;;;;16.90;7.38;;;;;;;;;;5043231;28;20504;-86
2023/01/25 10:06:11;;;;;;;16.27;8.20;;;;;;;;;;5023977;28;20029;-86
2023/01/25 10:08:46;;;;;;;19.20;8.52;;;;;;;;;;5021408;28;20028;-87
2023/01/25 10:11:30;;;;;;;18.20;8.48;;;;;;;;;;5053456;28;20116;-87
2023/01/25 10:13:56;;;;;;;20.15;8.35;;;;;;;;;;5029592;28;20063;-86
2023/01/25 10:16:38;;;;;;;17.63;8.18;;;;;;;;;;5037310;28;20041;-89
2023/01/25 10:19:18;;;;;;;15.65;8.02;;;;;;;;;;5042947;28;20041;-87
2023/01/25 10:22:01;;;;;;;15.70;8.10;;;;;;;;;;5034770;28;20033;-88
2023/01/25 10:24:38;;;;;;;16.40;7.63;;;;;;;;;;5054928;28;20033;-88
2023/01/25 10:27:22;;;;;;;18.70;8.75;;;;;;;;;;5047654;28;20078;-86
2023/01/25 10:29:49;;;;;;;18.73;8.60;;;;;;;;;;5068870;28;20041;-87
2023/01/25 10:32:17;;;;;;;20.38;10.00;;;;;;;;;;5052788;28;20033;-87
2023/01/25 10:35:15;;;;;;;21.00;8.98;;;;;;;;;;5056259;28;20112;-87
2023/01/25 10:37:43;;;;;;;21.90;9.00;;;;;;;;;;5007301;28;20052;-86
2023/01/25 10:40:32;;;;;;;22.00;10.48;;;;;;;;;;5039384;28;20379;-85
2023/01/25 10:43:27;;;;;;;19.40;9.68;;;;;;;;;;5025870;28;20512;-86
2023/01/25 10:45:52;;;;;;;19.67;9.20;;;;;;;;;;5005273;28;20045;-85
2023/01/25 10:48:25;;;;;;;23.25;9.40;;;;;;;;;;5032260;28;20486;-88
2023/01/25 10:50:53;;;;;;;23.05;10.55;;;;;;;;;;5033109;28;20033;-86
2023/01/25 10:53:38;;;;;;;24.92;10.35;;;;;;;;;;5011028;28;20144;-87
2023/01/25 10:56:10;;;;;;;22.85;10.75;;;;;;;;;;5033988;28;20053;-83
2023/01/25 10:58:36;;;;;;;22.48;9.82;;;;;;;;;;5052168;28;20029;-85
2023/01/25 11:01:08;;;;;;;25.73;10.98;;;;;;;;;;5033810;28;20059;-86
2023/01/25 11:03:57;;;;;;;27.15;11.10;;;;;;;;;;5022135;28;20403;-86
2023/01/25 11:06:47;;;;;;;22.77;9.95;;;;;;;;;;5031326;28;20049;-87
2023/01/25 11:09:21;;;;;;;22.92;10.57;;;;;;;;;;5022974;28;20063;-86
2023/01/25 11:12:15;;;;;;;29.52;10.27;;;;;;;;;;5039165;28;20033;-85
2023/01/25 11:14:40;;;;;;;24.20;10.52;;;;;;;;;;5027899;28;20040;-85
2023/01/25 11:17:28;;;;;;;26.33;10.82;;;;;;;;;;5021090;28;20036;-86
2023/01/25 11:20:17;;;;;;;26.02;10.43;;;;;;;;;;5012053;28;20025;-86
2023/01/25 11:22:51;;;;;;;25.10;10.65;;;;;;;;;;5036596;28;20032;-86
2023/01/25 11:25:33;;;;;;;23.48;9.80;;;;;;;;;;5033601;28;20064;-86
2023/01/25 11:28:17;;;;;;;25.58;10.73;;;;;;;;;;5022898;28;20041;-85
2023/01/25 11:30:43;;;;;;;23.85;10.30;;;;;;;;;;5044503;28;20032;-86
2023/01/25 11:33:10;;;;;;;28.27;11.57;;;;;;;;;;5028660;28;20116;-86
2023/01/25 11:35:43;;;;;;;24.67;10.27;;;;;;;;;;5050218;28;20071;-84
2023/01/25 11:38:08;;;;;;;27.63;11.40;;;;;;;;;;5017694;28;20850;-85
2023/01/25 11:40:48;;;;;;;27.45;11.05;;;;;;;;;;5049197;28;20063;-84
2023/01/25 11:43:27;;;;;;;26.33;11.48;;;;;;;;;;5024241;28;20115;-84
2023/01/25 11:46:18;;;;;;;28.25;12.02;;;;;;;;;;5021482;28;20037;-83
2023/01/25 11:48:58;;;;;;;26.52;12.05;;;;;;;;;;5051108;28;20043;-82
2023/01/25 11:51:32;;;;;;;29.10;12.07;;;;;;;;;;5031779;28;20123;-85
2023/01/25 11:54:22;;;;;;;24.80;11.25;;;;;;;;;;5042248;28;20444;-83
2023/01/25 11:56:50;;;;;;;32.85;13.48;;;;;;;;;;5049110;28;20048;-84
2023/01/25 11:59:37;;;;;;;30.73;13.82;;;;;;;;;;5033829;28;20099;-83
2023/01/25 12:02:07;;;;;;;26.40;11.52;;;;;;;;;;5049274;28;20033;-85
2023/01/25 12:04:57;;;;;;;28.08;12.60;;;;;;;;;;5053010;28;20450;-86
2023/01/25 12:07:51;;;;;;;30.55;13.23;;;;;;;;;;5050215;28;20536;-87
2023/01/25 12:10:26;;;;;;;26.85;12.20;;;;;;;;;;5023452;28;20071;-84
2023/01/25 12:13:00;;;;;;;28.30;11.40;;;;;;;;;;5048455;28;20392;-85
2023/01/25 12:15:34;;;;;;;28.25;11.68;;;;;;;;;;5033061;28;20033;-83
2023/01/25 12:18:42;;;;;;;30.52;11.82;;;;;;;;;;5027319;28;20088;-84
2023/01/25 12:21:13;;;;;;;24.33;10.35;;;;;;;;;;5017317;28;20646;-85
2023/01/25 12:23:51;;;;;;;28.17;10.43;;;;;;;;;;5034590;28;20104;-85
2023/01/25 12:26:16;;;;;;;;;;;;;;;;;;5049148;28;20063;-84
2023/01/25 12:28:45;;;;;;;23.48;10.18;;;;;;;;;;5033879;28;19917;-84
2023/01/25 12:31:10;;;;;;;20.10;9.05;;;;;;;;;;5037904;28;20036;-84
2023/01/25 12:33:40;;;;;;;22.00;9.63;;;;;;;;;;5051015;28;20047;-85
2023/01/25 12:36:13;;;;;;;22.88;9.45;;;;;;;;;;5032917;28;20040;-85
2023/01/25 12:38:43;;;;;;;23.02;9.60;;;;;;;;;;5023470;28;20159;-84
2023/01/25 12:41:42;;;;;;;20.05;8.93;;;;;;;;;;5041520;28;20041;-84
2023/01/25 12:44:30;;;;;;;21.77;9.80;;;;;;;;;;5023287;28;20043;-83
2023/01/25 12:46:58;;;;;;;23.27;9.60;;;;;;;;;;5017828;28;20091;-85
2023/01/25 12:49:37;;;;;;;21.77;10.40;;;;;;;;;;5032463;28;20614;-85
2023/01/25 12:52:05;;;;;;;24.63;10.77;;;;;;;;;;5041709;28;20025;-84
2023/01/25 12:54:38;;;;;;;21.20;9.52;;;;;;;;;;5031555;28;20048;-84
2023/01/25 12:57:14;;;;;;;22.00;8.88;;;;;;;;;;5026143;28;20057;-84
2023/01/25 13:00:04;;;;;;;22.67;8.73;;;;;;;;;;5029084;28;20515;-84
2023/01/25 13:02:42;;;;;;;20.48;8.95;;;;;;;;;;5031358;28;20040;-85
2023/01/25 13:05:20;;;;;;;23.73;9.13;;;;;;;;;;5031530;28;20378;-85
2023/01/25 13:08:21;;;;;;;20.38;8.40;;;;;;;;;;5050076;28;20392;-83
2023/01/25 13:10:50;;;;;;;23.38;9.70;;;;;;;;;;5024750;28;20097;-84
2023/01/25 13:13:26;;;;;;;20.65;9.60;;;;;;;;;;5055493;28;20040;-85
2023/01/25 13:15:52;;;;;;;24.90;10.70;;;;;;;;;;5021445;28;20519;-85
2023/01/25 13:18:27;;;;;;;23.30;9.90;;;;;;;;;;4999918;28;20122;-85
2023/01/25 13:20:53;;;;;;;21.60;9.43;;;;;;;;;;5039616;28;20124;-85
2023/01/25 13:23:42;;;;;;;24.90;9.27;;;;;;;;;;5055377;28;20048;-86
2023/01/25 13:26:19;;;;;;;24.23;9.60;;;;;;;;;;5040740;28;20072;-85
2023/01/25 13:28:47;;;;;;;24.83;10.05;;;;;;;;;;5054295;28;20039;-85
2023/01/25 13:31:42;;;;;;;21.45;8.77;;;;;;;;;;5037904;28;20493;-85
2023/01/25 13:34:11;;;;;;;22.75;10.02;;;;;;;;;;4999258;28;20037;-85
2023/01/25 13:36:38;;;;;;;22.38;9.90;;;;;;;;;;5031861;28;20085;-85
2023/01/25 13:39:30;;;;;;;25.33;9.98;;;;;;;;;;5037582;28;20045;-84
2023/01/25 13:42:10;;;;;;;20.55;9.40;;;;;;;;;;5048638;28;20052;-84
2023/01/25 13:44:44;;;;;;;24.98;10.43;;;;;;;;;;5027856;28;20413;-85
2023/01/25 13:47:11;;;;;;;25.73;9.82;;;;;;;;;;5033828;28;20033;-84
2023/01/25 13:49:40;;;;;;;;;;;;;;;;;;5020466;28;20082;-85
2023/01/25 13:52:06;;;;;;;21.98;8.90;;;;;;;;;;5017600;28;20380;-84
2023/01/25 13:54:32;;;;;;;23.98;10.15;;;;;;;;;;5034947;28;20033;-87
2023/01/25 13:57:08;;;;;;;25.58;10.68;;;;;;;;;;5022867;28;20040;-85
2023/01/25 13:59:34;;;;;;;29.00;11.00;;;;;;;;;;5036192;28;20041;-86
2023/01/25 14:02:00;;;;;;;21.55;9.30;;;;;;;;;;5025205;28;20099;-85
2023/01/25 14:04:27;;;;;;;25.40;9.73;;;;;;;;;;5023302;28;20048;-85
2023/01/25 14:06:57;;;;;;;25.03;11.00;;;;;;;;;;5022322;28;20117;-86
2023/01/25 14:09:23;;;;;;;23.63;9.90;;;;;;;;;;5029540;28;20303;-87
2023/01/25 14:11:48;;;;;;;23.58;9.75;;;;;;;;;;5021544;28;20033;-86
2023/01/25 14:14:28;;;;;;;25.60;10.63;;;;;;;;;;5035551;28;20045;-87
2023/01/25 14:17:23;;;;;;;26.25;10.07;;;;;;;;;;5032069;28;20063;-87
2023/01/25 14:19:57;;;;;;;28.98;10.68;;;;;;;;;;5011405;28;20047;-90
2023/01/25 14:22:25;;;;;;;23.60;9.02;;;;;;;;;;5006293;28;20131;-89
2023/01/25 14:25:11;;;;;;;26.98;10.90;;;;;;;;;;5004735;28;20033;-89
2023/01/25 14:27:43;;;;;;;21.65;9.38;;;;;;;;;;5007429;28;20584;-90
2023/01/25 14:30:30;;;;;;;20.60;9.82;;;;;;;;;;5016341;28;20120;-88
2023/01/25 14:32:56;;;;;;;23.20;8.95;;;;;;;;;;5022635;28;20065;-87
2023/01/25 14:35:31;;;;;;;22.30;8.88;;;;;;;;;;5036999;28;20566;-86
2023/01/25 14:37:57;;;;;;;19.52;8.15;;;;;;;;;;5049144;28;20033;-85
2023/01/25 14:40:23;;;;;;;19.23;7.93;;;;;;;;;;5030674;28;20052;-86
2023/01/25 14:42:50;;;;;;;19.90;8.07;;;;;;;;;;5018478;28;20090;-85
2023/01/25 14:45:16;;;;;;;20.23;7.93;;;;;;;;;;5013440;28;20128;-85
2023/01/25 14:47:41;;;;;;;22.23;9.77;;;;;;;;;;5046941;28;20566;-87
2023/01/25 14:50:38;;;;;;;21.98;8.65;;;;;;;;;;5025548;28;20390;-88